Time;durP1;ratioP1;P1;durP2;ratioP2;P2;SDS_P1;SDS_P2;PMS_P1;PMS_P2;Temp;Humidity;BMP_temperature;BMP_pressure;BME280_temperature;BME280_humidity;BME280_pressure;Samples;Min_cycle;Max_cycle;Signal;HPM_P1;HPM_P2
2022/10/01 00:00:20;;;;;;;8.37;6.40;;;;;;;16.33;51.50;99554.91;4157060;28;20224;-35
2022/10/01 00:02:21;;;;;;;7.90;6.47;;;;;;;16.87;51.23;99470.78;4156893;28;20248;-34
2022/10/01 00:04:23;;;;;;;8.33;6.33;;;;;;;15.71;53.90;99495.88;4151539;28;20315;-34
2022/10/01 00:06:25;;;;;;;6.57;5.70;;;;;;;16.84;50.99;99441.66;4147723;28;20655;-32
2022/10/01 00:08:28;;;;;;;7.87;6.30;;;;;;;17.37;49.86;99418.44;4150667;28;20557;-32
2022/10/01 00:10:30;;;;;;;8.10;7.20;;;;;;;17.50;49.71;99436.38;4154818;28;20260;-32
2022/10/01 00:12:32;;;;;;;7.93;6.47;;;;;;;16.71;50.79;99533.75;4156153;28;20758;-32
2022/10/01 00:14:38;;;;;;;13.27;6.73;;;;;;;16.95;50.55;99485.84;4156670;28;20276;-33
2022/10/01 00:16:39;;;;;;;7.97;6.33;;;;;;;17.37;50.15;99439.94;4157758;28;20244;-33
2022/10/01 00:18:43;;;;;;;6.93;5.50;;;;;;;14.27;56.66;99553.13;4154359;28;20245;-34
2022/10/01 00:20:44;;;;;;;6.77;5.50;;;;;;;14.99;55.53;99508.59;4157053;28;20256;-33
2022/10/01 00:22:46;;;;;;;7.23;6.20;;;;;;;14.28;56.24;99565.50;4152298;28;20259;-32
2022/10/01 00:24:48;;;;;;;7.40;6.07;;;;;;;14.50;55.13;99554.84;4150480;28;20259;-34
2022/10/01 00:26:50;;;;;;;9.27;6.40;;;;;;;15.29;55.05;99465.53;4158782;28;20343;-33
2022/10/01 00:28:57;;;;;;;9.57;6.20;;;;;;;16.10;52.92;99408.56;4151977;28;20284;-34
2022/10/01 00:30:59;;;;;;;7.80;6.50;;;;;;;16.12;52.10;99475.41;4154033;28;20623;-33
2022/10/01 00:33:01;;;;;;;8.30;5.93;;;;;;;14.75;54.71;99557.16;4152466;28;20239;-32
2022/10/01 00:35:03;;;;;;;6.87;5.67;;;;;;;15.73;53.77;99442.09;4157043;28;20239;-32
2022/10/01 00:37:04;;;;;;;6.07;5.23;;;;;;;13.70;56.04;99601.91;4157069;28;20244;-32
2022/10/01 00:39:06;;;;;;;6.37;5.43;;;;;;;13.77;56.73;99566.25;4149331;28;20268;-32
2022/10/01 00:41:09;;;;;;;5.10;4.60;;;;;;;13.39;58.61;99546.78;4151454;28;20319;-32
2022/10/01 00:43:48;;;;;;;6.03;5.33;;;;;;;14.35;57.87;99425.66;4156295;28;20268;-33
2022/10/01 00:45:54;;;;;;;5.97;4.63;;;;;;;14.40;56.65;99447.31;4145960;28;20267;-34
2022/10/01 00:47:57;;;;;;;5.93;4.93;;;;;;;13.45;58.36;99511.34;4159242;28;20614;-36
2022/10/01 00:50:05;;;;;;;5.40;4.60;;;;;;;13.03;59.53;99529.59;4157237;28;20236;-34
2022/10/01 00:52:12;;;;;;;7.27;5.20;;;;;;;13.95;57.82;99421.56;4156599;28;20315;-34
2022/10/01 00:54:42;;;;;;;7.27;4.57;;;;;;;13.99;58.55;99395.28;4157622;28;20256;-33
2022/10/01 00:56:45;;;;;;;6.03;4.47;;;;;;;14.39;56.82;99392.16;4150878;28;20681;-34
2022/10/01 00:58:52;;;;;;;4.47;4.07;;;;;;;13.28;59.24;99488.50;4153583;28;20276;-34
2022/10/01 01:00:55;;;;;;;6.30;4.40;;;;;;;14.06;58.24;99377.47;4154315;28;20268;-33
2022/10/01 01:02:57;;;;;;;5.83;4.50;;;;;;;13.98;57.78;99411.53;4157638;28;20295;-33
2022/10/01 01:04:59;;;;;;;4.20;3.80;;;;;;;13.93;57.65;99436.13;4155937;28;20260;-32
2022/10/01 01:07:03;;;;;;;6.17;4.20;;;;;;;13.96;57.27;99441.94;4151715;28;20876;-34
2022/10/01 01:09:05;;;;;;;5.67;4.63;;;;;;;14.47;56.57;99397.38;4153519;28;20320;-35
2022/10/01 01:11:06;;;;;;;5.80;4.43;;;;;;;14.63;56.82;99358.78;4158152;28;20733;-34
2022/10/01 01:13:31;;;;;;;7.33;4.00;;;;;;;15.48;54.55;99319.31;4152301;28;20233;-32
2022/10/01 01:16:02;;;;;;;4.40;3.93;;;;;;;14.30;57.14;99386.94;4156159;28;20265;-33
2022/10/01 01:18:16;;;;;;;3.47;3.10;;;;;;;13.01;59.19;99498.75;4159139;28;20290;-36
2022/10/01 01:20:33;;;;;;;4.90;3.80;;;;;;;14.91;56.44;99310.63;4156498;28;20311;-34
2022/10/01 01:22:40;;;;;;;5.23;4.50;;;;;;;14.64;56.24;99360.47;4152503;28;20706;-34
2022/10/01 01:24:50;;;;;;;5.13;4.23;;;;;;;15.80;54.08;99277.53;4142706;28;20682;-36
2022/10/01 01:27:23;;;;;;;4.67;4.00;;;;;;;13.28;58.52;99493.81;4156141;28;20232;-34
2022/10/01 01:29:36;;;;;;;4.30;3.70;;;;;;;13.81;58.41;99419.75;4150542;28;20267;-33
2022/10/01 01:31:45;;;;;;;4.60;3.70;;;;;;;13.54;58.27;99427.44;4151157;28;20271;-31
2022/10/01 01:33:50;;;;;;;4.43;3.83;;;;;;;14.73;56.37;99326.34;4151785;28;20263;-31
2022/10/01 01:35:58;;;;;;;4.63;3.70;;;;;;;14.79;56.11;99322.91;4152301;28;20233;-31
2022/10/01 01:38:06;;;;;;;6.03;4.37;;;;;;;14.89;55.39;99336.78;4153010;28;20228;-32
2022/10/01 01:40:10;;;;;;;5.20;3.80;;;;;;;15.26;53.53;99388.25;4129777;28;20252;-31
2022/10/01 01:42:36;;;;;;;7.77;4.10;;;;;;;15.32;54.74;99339.25;4156143;28;20229;-32
2022/10/01 01:44:42;;;;;;;5.43;4.17;;;;;;;13.93;56.46;99493.09;4157378;28;20235;-36
2022/10/01 01:46:48;;;;;;;4.60;4.20;;;;;;;14.84;54.78;99398.91;4157072;28;20267;-35
2022/10/01 01:48:52;;;;;;;4.00;3.60;;;;;;;13.53;58.26;99460.50;4152980;28;20294;-34
2022/10/01 01:51:01;;;;;;;4.50;4.10;;;;;;;14.35;57.15;99364.97;4153070;28;20229;-35
2022/10/01 01:53:03;;;;;;;4.57;3.90;;;;;;;13.54;58.19;99424.75;4154456;28;20323;-32
2022/10/01 01:55:07;;;;;;;4.03;3.70;;;;;;;14.36;56.13;99379.16;4154210;28;20257;-33
2022/10/01 01:57:12;;;;;;;5.37;4.17;;;;;;;14.56;56.58;99356.06;4148914;28;20248;-33
2022/10/01 01:59:17;;;;;;;4.87;3.97;;;;;;;14.28;57.30;99356.91;4156293;28;20741;-34
2022/10/01 02:01:38;;;;;;;5.63;3.80;;;;;;;15.57;54.50;99288.59;4156947;28;20308;-32
2022/10/01 02:03:40;;;;;;;3.90;3.50;;;;;;;13.73;57.30;99444.72;4146563;28;20689;-33
2022/10/01 02:05:52;;;;;;;7.47;4.00;;;;;;;15.15;55.48;99292.41;4153768;28;20315;-34
2022/10/01 02:08:02;;;;;;;4.43;4.03;;;;;;;14.61;56.15;99363.50;4155231;28;20706;-33
2022/10/01 02:10:04;;;;;;;4.43;3.77;;;;;;;13.31;58.71;99458.75;4151634;28;20300;-33
2022/10/01 02:12:31;;;;;;;4.97;4.30;;;;;;;14.24;57.44;99350.28;4154247;28;20228;-36
2022/10/01 02:14:49;;;;;;;5.87;3.80;;;;;;;13.87;57.27;99397.66;4150193;28;20267;-32
2022/10/01 02:17:23;;;;;;;4.80;4.40;;;;;;;14.31;56.90;99347.66;4156960;28;20267;-35
2022/10/01 02:19:35;;;;;;;3.97;3.57;;;;;;;14.29;57.21;99341.66;4128536;28;20668;-33
2022/10/01 02:21:54;;;;;;;6.23;4.10;;;;;;;14.65;56.61;99290.69;4151698;28;20236;-32
2022/10/01 02:24:14;;;;;;;4.77;3.67;;;;;;;15.18;55.16;99310.75;4151802;28;20224;-34
2022/10/01 02:26:20;;;;;;;4.57;3.80;;;;;;;15.21;55.11;99308.50;4150096;28;20311;-37
2022/10/01 02:28:23;;;;;;;4.77;3.43;;;;;;;14.27;56.64;99403.38;4157325;28;20303;-32
2022/10/01 02:30:31;;;;;;;4.70;3.83;;;;;;;14.15;57.28;99397.69;4153841;28;20251;-34
2022/10/01 02:32:36;;;;;;;4.27;3.77;;;;;;;13.74;58.55;99405.47;4152886;28;20387;-34
2022/10/01 02:34:39;;;;;;;4.03;3.63;;;;;;;14.07;57.72;99375.63;4156929;28;20682;-32
2022/10/01 02:36:44;;;;;;;6.83;3.70;;;;;;;15.18;55.47;99273.25;4152080;28;20348;-32
2022/10/01 02:38:49;;;;;;;4.07;3.63;;;;;;;15.15;55.33;99311.13;4149331;28;20232;-32
2022/10/01 02:40:55;;;;;;;4.03;3.63;;;;;;;13.56;57.38;99476.16;4153289;28;20287;-34
2022/10/01 02:43:03;;;;;;;4.67;4.20;;;;;;;15.03;55.27;99343.00;4148497;28;20303;-36
2022/10/01 02:45:06;;;;;;;4.80;3.67;;;;;;;14.65;56.09;99386.22;4148136;28;20233;-36
2022/10/01 02:47:20;;;;;;;5.43;4.07;;;;;;;15.36;55.26;99283.41;4153334;28;20280;-34
2022/10/01 02:49:22;;;;;;;4.80;3.83;;;;;;;14.56;55.89;99390.03;4150672;28;20521;-34
2022/10/01 02:51:43;;;;;;;4.00;3.60;;;;;;;14.49;57.43;99345.31;4152456;28;20647;-36
2022/10/01 02:53:51;;;;;;;3.77;3.40;;;;;;;14.05;57.45;99415.09;4152351;28;20264;-32
2022/10/01 02:55:55;;;;;;;4.63;3.80;;;;;;;13.81;57.40;99435.78;4154153;28;20260;-34
2022/10/01 02:57:57;;;;;;;4.07;3.67;;;;;;;14.68;56.31;99325.09;4165251;28;20682;-33
2022/10/01 03:00:02;;;;;;;4.10;3.70;;;;;;;14.94;56.16;99291.50;4150811;28;20222;-33
2022/10/01 03:02:03;;;;;;;6.57;3.80;;;;;;;14.00;57.57;99415.66;4154424;28;20593;-34
2022/10/01 03:04:05;;;;;;;4.70;4.20;;;;;;;15.04;55.06;99331.28;4147135;28;20247;-33
2022/10/01 03:06:07;;;;;;;4.00;3.70;;;;;;;14.26;56.11;99415.09;4150891;28;20511;-32
2022/10/01 03:08:08;;;;;;;4.13;3.73;;;;;;;14.66;55.53;99366.44;4157285;28;20256;-33
2022/10/01 03:10:11;;;;;;;5.13;3.67;;;;;;;13.98;57.90;99388.28;4155150;28;20264;-33
2022/10/01 03:12:13;;;;;;;4.00;3.70;;;;;;;14.59;56.55;99315.56;4153971;28;20302;-34
2022/10/01 03:14:14;;;;;;;3.47;3.17;;;;;;;13.44;58.68;99440.25;4153004;28;20253;-32
2022/10/01 03:16:16;;;;;;;4.10;3.37;;;;;;;14.79;56.26;99320.25;4170701;28;20252;-32
2022/10/01 03:18:18;;;;;;;4.33;3.27;;;;;;;13.76;57.81;99416.81;4157899;28;20227;-33
2022/10/01 03:20:20;;;;;;;5.47;3.20;;;;;;;13.36;58.44;99426.97;4154037;28;20287;-32
2022/10/01 03:22:22;;;;;;;6.03;3.80;;;;;;;14.09;58.04;99349.50;4156446;28;20713;-33
2022/10/01 03:24:24;;;;;;;4.93;3.70;;;;;;;14.14;56.89;99381.84;4155154;28;20251;-36
2022/10/01 03:26:26;;;;;;;4.53;3.73;;;;;;;14.83;55.38;99341.06;4154629;28;20319;-32
2022/10/01 03:28:27;;;;;;;3.87;3.57;;;;;;;14.24;56.77;99387.72;4152636;28;20240;-32
2022/10/01 03:30:29;;;;;;;3.83;3.53;;;;;;;14.79;54.82;99366.56;4155224;28;20243;-37
2022/10/01 03:32:32;;;;;;;3.33;3.03;;;;;;;13.61;57.81;99440.06;4151920;28;20258;-35
2022/10/01 03:34:33;;;;;;;3.83;3.40;;;;;;;13.25;58.62;99440.78;4149239;28;20299;-32
2022/10/01 03:36:35;;;;;;;4.60;3.50;;;;;;;13.72;58.43;99388.78;4147954;28;20291;-33
2022/10/01 03:38:37;;;;;;;4.07;3.67;;;;;;;14.40;57.10;99316.25;4152620;28;20639;-37
2022/10/01 03:40:38;;;;;;;4.33;3.50;;;;;;;14.87;56.45;99275.41;4152783;28;20237;-34
2022/10/01 03:42:40;;;;;;;5.23;3.77;;;;;;;13.98;56.80;99390.13;4157340;28;20709;-34
2022/10/01 03:44:42;;;;;;;4.10;3.70;;;;;;;14.19;57.72;99346.53;4156618;28;20232;-36
2022/10/01 03:46:43;;;;;;;3.13;2.63;;;;;;;13.77;58.00;99399.75;4159349;28;20270;-35
2022/10/01 03:48:45;;;;;;;4.77;3.50;;;;;;;15.44;54.15;99291.28;4157236;28;20680;-34
2022/10/01 03:50:58;;;;;;;5.20;3.60;;;;;;;15.08;55.92;99268.28;4152567;28;20255;-33
2022/10/01 03:53:00;;;;;;;5.60;3.53;;;;;;;15.49;54.38;99266.53;4156619;28;20240;-33
2022/10/01 03:55:01;;;;;;;4.60;3.43;;;;;;;14.44;55.78;99389.72;4158605;28;20271;-35
2022/10/01 03:57:03;;;;;;;3.77;3.13;;;;;;;14.28;56.20;99388.16;4157070;28;20267;-32
2022/10/01 03:59:05;;;;;;;4.37;3.43;;;;;;;14.05;56.50;99396.38;4155656;28;20256;-34
2022/10/01 04:01:07;;;;;;;3.50;3.07;;;;;;;14.65;55.52;99336.19;4156212;28;20257;-35
2022/10/01 04:03:08;;;;;;;4.30;3.20;;;;;;;13.64;57.80;99412.97;4157075;28;20256;-32
2022/10/01 04:05:11;;;;;;;3.60;3.30;;;;;;;14.16;56.46;99390.53;4153997;28;20252;-33
2022/10/01 04:07:12;;;;;;;5.30;3.50;;;;;;;13.36;57.32;99453.69;4156101;28;20307;-34
2022/10/01 04:09:14;;;;;;;3.43;3.07;;;;;;;15.22;54.68;99288.72;4150088;28;20256;-34
2022/10/01 04:11:16;;;;;;;3.93;2.97;;;;;;;14.71;55.90;99331.88;4154253;28;20460;-33
2022/10/01 04:13:18;;;;;;;4.30;3.07;;;;;;;15.34;54.60;99291.66;4157027;28;20236;-34
2022/10/01 04:15:20;;;;;;;3.87;3.13;;;;;;;15.29;54.14;99326.25;4160023;28;20270;-33
2022/10/01 04:17:22;;;;;;;3.27;3.00;;;;;;;16.10;52.65;99279.81;4160617;28;20283;-32
2022/10/01 04:19:24;;;;;;;4.57;3.43;;;;;;;15.34;55.03;99309.56;4157747;28;20322;-32
2022/10/01 04:21:25;;;;;;;6.97;3.37;;;;;;;14.80;55.83;99354.00;4154035;28;20738;-32
2022/10/01 04:23:27;;;;;;;4.60;3.20;;;;;;;15.20;55.01;99330.13;4157502;28;20259;-33
2022/10/01 04:25:29;;;;;;;3.27;2.80;;;;;;;13.85;57.15;99452.28;4155909;28;20752;-37
2022/10/01 04:27:31;;;;;;;4.13;3.07;;;;;;;15.28;55.36;99308.53;4159105;28;20272;-33
2022/10/01 04:29:32;;;;;;;3.47;3.10;;;;;;;14.40;56.33;99423.25;4158200;28;20266;-32
2022/10/01 04:31:40;;;;;;;5.23;2.73;;;;;;;13.71;57.64;99451.28;4156667;28;20231;-34
2022/10/01 04:33:43;;;;;;;3.53;3.23;;;;;;;15.42;55.51;99294.16;4159592;28;20232;-33
2022/10/01 04:35:45;;;;;;;4.80;3.30;;;;;;;14.70;56.41;99381.91;4156301;28;20283;-35
2022/10/01 04:37:46;;;;;;;4.70;3.03;;;;;;;14.95;56.60;99329.78;4159416;28;20260;-35
2022/10/01 04:39:48;;;;;;;3.83;3.00;;;;;;;14.97;56.50;99325.91;4157975;28;20541;-32
2022/10/01 04:41:50;;;;;;;3.40;3.10;;;;;;;14.41;57.41;99400.81;4156526;28;20237;-34
2022/10/01 04:43:52;;;;;;;5.23;3.20;;;;;;;14.98;55.99;99348.94;4157465;28;20260;-35
2022/10/01 04:45:54;;;;;;;4.50;3.00;;;;;;;14.28;58.49;99369.44;4156586;28;20263;-33
2022/10/01 04:47:57;;;;;;;3.30;3.00;;;;;;;14.55;57.47;99333.03;4151214;28;20264;-33
2022/10/01 04:49:58;;;;;;;7.07;3.23;;;;;;;14.51;58.00;99337.09;4152622;28;20233;-32
2022/10/01 04:52:00;;;;;;;3.03;2.83;;;;;;;13.36;59.61;99432.31;4153276;28;20761;-33
2022/10/01 04:54:02;;;;;;;3.13;2.87;;;;;;;14.19;57.80;99386.63;4151243;28;20328;-33
2022/10/01 04:56:04;;;;;;;4.97;3.27;;;;;;;14.14;58.66;99353.28;4155494;28;20702;-33
2022/10/01 04:58:05;;;;;;;4.03;3.63;;;;;;;14.94;57.11;99296.03;4152843;28;20244;-34
2022/10/01 05:00:10;;;;;;;3.30;3.00;;;;;;;14.94;56.80;99301.38;4158391;28;20627;-34
2022/10/01 05:02:12;;;;;;;3.67;3.23;;;;;;;13.72;59.71;99386.97;4155488;28;21088;-33
2022/10/01 05:04:14;;;;;;;3.77;2.80;;;;;;;13.40;59.81;99412.25;4158165;28;20228;-33
2022/10/01 05:06:15;;;;;;;3.27;2.97;;;;;;;15.47;56.28;99229.22;4157174;28;20260;-33
2022/10/01 05:08:17;;;;;;;4.47;3.00;;;;;;;14.18;57.30;99372.44;4156477;28;20263;-32
2022/10/01 05:10:21;;;;;;;3.63;3.33;;;;;;;13.79;58.29;99389.72;4153340;28;20314;-32
2022/10/01 05:12:24;;;;;;;3.00;2.80;;;;;;;13.86;59.20;99377.28;4152718;28;20790;-34
2022/10/01 05:14:25;;;;;;;3.87;3.40;;;;;;;13.78;58.52;99382.69;4157775;28;20279;-32
2022/10/01 05:16:27;;;;;;;3.20;2.83;;;;;;;13.62;59.63;99386.44;4152379;28;20236;-32
2022/10/01 05:18:29;;;;;;;3.90;3.17;;;;;;;13.64;59.92;99365.69;4155087;28;20239;-34
2022/10/01 05:20:32;;;;;;;3.13;2.70;;;;;;;13.40;59.79;99369.53;4149554;28;20240;-32
2022/10/01 05:22:34;;;;;;;2.93;2.70;;;;;;;13.70;59.47;99332.03;4153480;28;20315;-32
2022/10/01 05:24:36;;;;;;;3.93;2.90;;;;;;;13.17;59.89;99381.13;4148185;28;20717;-32
2022/10/01 05:26:38;;;;;;;3.10;2.80;;;;;;;14.76;57.80;99229.63;4143616;28;20360;-32
2022/10/01 05:28:43;;;;;;;3.20;2.77;;;;;;;14.67;57.29;99277.13;4150515;28;20343;-33
2022/10/01 05:30:44;;;;;;;4.73;2.80;;;;;;;13.45;59.76;99366.28;4155203;28;20673;-36
2022/10/01 05:33:07;;;;;;;2.70;2.50;;;;;;;13.96;59.53;99286.09;4155615;28;20717;-32
2022/10/01 05:35:09;;;;;;;3.20;2.90;;;;;;;13.77;59.52;99300.91;4153283;28;20699;-32
2022/10/01 05:37:11;;;;;;;3.30;2.80;;;;;;;13.79;59.48;99285.50;4153606;28;20264;-34
2022/10/01 05:39:12;;;;;;;3.83;3.50;;;;;;;14.41;58.80;99232.31;4155796;28;20671;-34
2022/10/01 05:41:15;;;;;;;3.97;3.07;;;;;;;14.88;57.03;99236.06;4155038;28;20228;-31
2022/10/01 05:43:17;;;;;;;3.73;2.87;;;;;;;13.93;58.42;99316.69;4172170;28;20809;-31
2022/10/01 05:45:19;;;;;;;3.53;3.23;;;;;;;14.71;58.30;99216.81;4152231;28;20312;-32
2022/10/01 05:47:21;;;;;;;3.80;3.20;;;;;;;14.34;59.10;99245.63;4158242;28;20323;-32
2022/10/01 05:49:24;;;;;;;2.70;2.50;;;;;;;12.71;61.08;99381.28;4156332;28;20267;-31
2022/10/01 05:51:26;;;;;;;3.97;3.20;;;;;;;14.61;57.68;99251.16;4153504;28;20232;-31
2022/10/01 05:53:27;;;;;;;3.53;3.20;;;;;;;14.78;58.04;99206.16;4158554;28;20263;-31
2022/10/01 05:55:32;;;;;;;3.53;3.23;;;;;;;13.93;59.38;99289.97;4153640;28;20256;-34
2022/10/01 05:57:33;;;;;;;3.63;2.47;;;;;;;13.27;61.36;99318.63;4154807;28;20252;-31
2022/10/01 05:59:35;;;;;;;3.50;3.20;;;;;;;13.86;59.05;99306.97;4158033;28;20273;-31
2022/10/01 06:01:37;;;;;;;4.13;3.43;;;;;;;15.06;57.30;99228.31;4152104;28;20244;-31
2022/10/01 06:03:38;;;;;;;3.43;3.00;;;;;;;14.69;56.86;99307.19;4155316;28;20294;-32
2022/10/01 06:05:43;;;;;;;4.17;3.13;;;;;;;14.97;57.17;99284.94;4152076;28;20812;-34
2022/10/01 06:07:44;;;;;;;4.67;3.10;;;;;;;14.63;57.76;99313.31;4155371;28;20326;-32
2022/10/01 06:09:46;;;;;;;3.60;3.37;;;;;;;14.59;58.49;99302.16;4164112;28;20272;-32
2022/10/01 06:11:48;;;;;;;4.63;3.10;;;;;;;15.38;57.10;99233.94;4154713;28;20773;-32
2022/10/01 06:13:50;;;;;;;3.87;2.80;;;;;;;13.85;58.58;99372.94;4147544;28;20291;-31
2022/10/01 06:15:52;;;;;;;3.43;3.13;;;;;;;14.97;57.38;99291.09;4152361;28;20279;-32
2022/10/01 06:17:53;;;;;;;3.47;2.80;;;;;;;14.38;57.59;99366.41;4152591;28;20315;-32
2022/10/01 06:19:55;;;;;;;2.83;2.13;;;;;;;13.51;59.86;99413.63;4157342;28;20679;-32
2022/10/01 06:21:56;;;;;;;4.50;3.43;;;;;;;15.02;57.74;99274.44;4150953;28;20307;-34
2022/10/01 06:23:58;;;;;;;3.40;3.10;;;;;;;15.76;56.11;99235.25;4148273;28;20650;-32
2022/10/01 06:26:01;;;;;;;3.33;3.03;;;;;;;15.32;56.06;99293.72;4155418;28;20229;-31
2022/10/01 06:28:05;;;;;;;3.40;3.13;;;;;;;13.62;60.10;99412.31;4153565;28;20260;-31
2022/10/01 06:30:08;;;;;;;3.87;3.20;;;;;;;13.41;61.31;99376.50;4156934;28;20343;-34
2022/10/01 06:32:12;;;;;;;4.83;3.57;;;;;;;13.71;60.75;99365.78;4156978;28;20315;-32
2022/10/01 06:34:14;;;;;;;2.83;2.63;;;;;;;14.10;60.41;99303.88;4149229;28;20268;-32
2022/10/01 06:36:16;;;;;;;5.60;3.43;;;;;;;14.26;60.03;99297.44;4159279;28;20244;-31
2022/10/01 06:38:20;;;;;;;3.70;3.40;;;;;;;14.58;58.34;99305.03;4154010;28;20225;-31
2022/10/01 06:40:21;;;;;;;3.70;2.80;;;;;;;13.72;59.88;99351.38;4157425;28;20248;-32
2022/10/01 06:42:23;;;;;;;3.20;2.90;;;;;;;13.70;60.73;99342.72;4155803;28;20766;-31
2022/10/01 06:44:25;;;;;;;6.67;2.97;;;;;;;14.03;60.49;99291.50;4154542;28;20311;-34
2022/10/01 06:46:27;;;;;;;4.77;2.87;;;;;;;14.81;58.89;99219.97;4156081;28;20248;-31
2022/10/01 06:48:30;;;;;;;3.40;3.10;;;;;;;13.40;61.87;99348.16;4156335;28;20286;-34
2022/10/01 06:50:33;;;;;;;4.80;3.23;;;;;;;14.86;58.82;99228.22;4155345;28;20236;-32
2022/10/01 06:52:47;;;;;;;3.30;3.00;;;;;;;13.56;61.39;99331.09;4152132;28;20640;-31
2022/10/01 06:54:50;;;;;;;4.40;2.97;;;;;;;13.02;62.06;99358.97;4154477;28;20776;-31
2022/10/01 06:56:51;;;;;;;2.90;2.70;;;;;;;13.04;62.22;99359.59;4150453;28;20651;-31
2022/10/01 06:58:53;;;;;;;3.23;2.97;;;;;;;13.50;61.83;99305.97;4149044;28;20308;-33
2022/10/01 07:01:00;;;;;;;3.30;3.00;;;;;;;14.23;60.37;99247.00;4154323;28;20517;-31
2022/10/01 07:03:09;;;;;;;3.53;3.10;;;;;;;13.69;61.10;99325.88;4150795;28;20233;-32
2022/10/01 07:05:11;;;;;;;3.43;3.07;;;;;;;15.49;57.26;99183.47;4157819;28;20323;-31
2022/10/01 07:07:13;;;;;;;4.37;3.20;;;;;;;14.23;61.00;99256.91;4151938;28;20280;-32
2022/10/01 07:09:15;;;;;;;3.53;3.23;;;;;;;14.42;59.62;99242.81;4149183;28;20268;-31
2022/10/01 07:11:17;;;;;;;3.17;2.80;;;;;;;13.63;60.44;99331.16;4157937;28;20322;-32
2022/10/01 07:13:19;;;;;;;3.33;3.00;;;;;;;14.01;60.38;99307.72;4153659;28;20256;-31
2022/10/01 07:15:21;;;;;;;3.73;2.70;;;;;;;13.30;61.08;99364.47;4151756;28;20236;-31
2022/10/01 07:17:23;;;;;;;3.63;3.10;;;;;;;14.12;60.88;99271.59;4156630;28;20233;-31
2022/10/01 07:19:25;;;;;;;2.63;2.50;;;;;;;13.01;62.26;99359.97;4155406;28;20251;-31
2022/10/01 07:21:26;;;;;;;3.50;2.63;;;;;;;13.59;61.35;99307.47;4161182;28;20260;-31
2022/10/01 07:23:28;;;;;;;3.80;2.80;;;;;;;13.83;60.39;99310.00;4156568;28;20259;-31
2022/10/01 07:25:30;;;;;;;3.40;3.10;;;;;;;13.93;61.40;99270.44;4156976;28;21020;-32
2022/10/01 07:27:31;;;;;;;3.70;3.10;;;;;;;14.38;60.47;99238.03;4158127;28;20286;-31
2022/10/01 07:29:33;;;;;;;5.47;2.77;;;;;;;14.49;58.74;99281.13;4155481;28;20244;-32
2022/10/01 07:31:35;;;;;;;4.83;3.33;;;;;;;14.87;59.03;99256.66;4157855;28;20312;-31
2022/10/01 07:33:38;;;;;;;2.80;2.43;;;;;;;13.26;60.99;99400.56;4157120;28;20585;-30
2022/10/01 07:35:40;;;;;;;4.50;3.10;;;;;;;14.78;59.08;99262.38;4160227;28;20271;-31
2022/10/01 07:37:42;;;;;;;4.23;3.40;;;;;;;13.67;60.68;99388.53;4155525;28;20264;-31
2022/10/01 07:39:43;;;;;;;3.70;3.40;;;;;;;15.26;58.48;99230.22;4151873;28;20903;-31
2022/10/01 07:41:45;;;;;;;3.43;3.10;;;;;;;14.63;58.44;99345.41;4153819;28;20897;-31
2022/10/01 07:43:48;;;;;;;4.83;3.83;;;;;;;15.02;58.40;99285.97;4160335;28;20304;-32
2022/10/01 07:45:53;;;;;;;4.00;3.60;;;;;;;14.74;59.21;99319.97;4153729;28;20237;-31
2022/10/01 07:47:59;;;;;;;3.20;2.90;;;;;;;14.36;60.03;99339.91;4158729;28;20232;-32
2022/10/01 07:50:01;;;;;;;2.60;2.37;;;;;;;13.61;62.19;99394.63;4157520;28;20825;-31
2022/10/01 07:52:03;;;;;;;3.27;2.97;;;;;;;13.78;61.12;99385.38;4156995;28;20767;-33
2022/10/01 07:54:04;;;;;;;3.20;3.00;;;;;;;14.22;61.39;99330.09;4152811;28;20315;-33
2022/10/01 07:56:06;;;;;;;3.27;2.97;;;;;;;14.63;59.52;99314.16;4157333;28;20225;-31
2022/10/01 07:58:08;;;;;;;5.30;3.00;;;;;;;14.91;58.71;99301.78;4158517;28;20244;-34
2022/10/01 08:00:10;;;;;;;3.60;2.90;;;;;;;13.82;61.54;99393.81;4157604;28;20263;-34
2022/10/01 08:02:17;;;;;;;3.77;3.00;;;;;;;13.48;61.73;99414.81;4158532;28;20690;-32
2022/10/01 08:06:41;;;;;;;3.67;3.37;;;;;;;13.92;61.34;99371.19;4155094;28;20406;-32
2022/10/01 08:08:43;;;;;;;3.70;3.33;;;;;;;13.10;64.01;99409.59;4157070;28;20255;-32
2022/10/01 08:10:45;;;;;;;3.23;3.00;;;;;;;13.03;62.18;99430.84;4151718;28;20315;-32
2022/10/01 08:12:47;;;;;;;3.23;2.93;;;;;;;13.57;62.78;99373.63;4152263;28;20489;-31
2022/10/01 08:14:49;;;;;;;4.43;2.77;;;;;;;14.51;59.94;99374.56;4156267;28;20267;-32
2022/10/01 08:16:54;;;;;;;3.97;3.50;;;;;;;15.54;58.42;99259.56;4156484;28;20325;-32
2022/10/01 08:18:56;;;;;;;3.73;3.37;;;;;;;13.22;62.26;99458.03;4154672;28;20233;-33
2022/10/01 08:21:01;;;;;;;3.73;3.03;;;;;;;14.90;59.82;99300.97;4156719;28;20254;-32
2022/10/01 08:23:06;;;;;;;4.73;3.80;;;;;;;14.54;60.44;99347.41;4154608;28;20312;-31
2022/10/01 08:25:08;;;;;;;2.80;2.60;;;;;;;13.22;62.81;99450.81;4150028;28;20260;-32
2022/10/01 08:27:10;;;;;;;3.67;3.37;;;;;;;13.94;61.82;99389.69;4148925;28;20251;-33
2022/10/01 08:29:11;;;;;;;4.97;3.33;;;;;;;13.51;61.94;99429.66;4157366;28;20233;-32
2022/10/01 08:31:17;;;;;;;5.20;3.77;;;;;;;14.44;60.26;99352.28;4159054;28;20282;-32
2022/10/01 08:33:19;;;;;;;3.90;3.20;;;;;;;14.92;60.05;99298.06;4153868;28;20638;-34
2022/10/01 08:35:22;;;;;;;3.87;3.57;;;;;;;14.59;59.53;99373.59;4154381;28;20228;-32
2022/10/01 08:37:28;;;;;;;3.90;3.60;;;;;;;14.20;61.49;99391.78;4157028;28;20275;-32
2022/10/01 08:39:29;;;;;;;3.50;3.20;;;;;;;15.53;58.85;99283.88;4156446;28;20272;-31
2022/10/01 08:41:56;;;;;;;4.13;3.10;;;;;;;14.24;60.92;99410.94;4158631;28;20655;-31
2022/10/01 08:44:00;;;;;;;3.50;3.20;;;;;;;15.18;59.67;99310.75;4149753;28;20786;-31
2022/10/01 08:46:05;;;;;;;3.90;3.60;;;;;;;14.41;60.20;99422.22;4149172;28;20260;-34
2022/10/01 08:48:24;;;;;;;3.53;3.23;;;;;;;14.60;60.92;99376.06;4154822;28;20560;-32
2022/10/01 08:50:38;;;;;;;3.17;2.90;;;;;;;14.28;59.81;99434.44;4147981;28;20260;-33
2022/10/01 08:52:50;;;;;;;4.37;3.57;;;;;;;15.90;57.75;99276.31;4152651;28;20609;-32
2022/10/01 08:54:59;;;;;;;5.40;3.10;;;;;;;13.77;60.90;99475.41;4156344;28;20633;-32
2022/10/01 08:57:03;;;;;;;3.97;3.37;;;;;;;15.18;59.92;99332.16;4155475;28;20244;-33
2022/10/01 08:59:28;;;;;;;4.07;3.43;;;;;;;14.87;59.91;99368.25;4157529;28;20275;-34
2022/10/01 09:01:30;;;;;;;3.37;3.07;;;;;;;15.04;59.96;99350.03;4157385;28;20236;-31
2022/10/01 09:03:32;;;;;;;3.80;3.20;;;;;;;14.74;60.54;99379.66;4152212;28;20586;-32
2022/10/01 09:05:55;;;;;;;5.20;3.60;;;;;;;14.06;61.48;99424.78;4158375;28;20736;-32
2022/10/01 09:08:14;;;;;;;5.10;3.60;;;;;;;13.74;62.60;99440.22;4157775;28;20306;-33
2022/10/01 09:10:24;;;;;;;3.50;3.20;;;;;;;14.65;61.98;99351.41;4155197;28;20701;-32
2022/10/01 09:12:41;;;;;;;4.97;3.70;;;;;;;14.66;61.22;99356.56;4151571;28;20263;-33
2022/10/01 09:14:59;;;;;;;3.60;3.30;;;;;;;14.23;62.57;99393.25;4157802;28;20252;-33
2022/10/01 09:17:22;;;;;;;3.80;3.43;;;;;;;14.72;61.25;99354.16;4151392;28;20355;-31
2022/10/01 09:19:44;;;;;;;3.50;3.20;;;;;;;14.58;60.33;99396.84;4169203;28;20274;-33
2022/10/01 09:22:12;;;;;;;7.03;3.50;;;;;;;14.63;60.99;99385.56;4154857;28;20275;-34
2022/10/01 09:24:23;;;;;;;3.50;3.20;;;;;;;13.76;62.72;99436.31;4157551;28;20264;-32
2022/10/01 09:26:25;;;;;;;3.70;3.30;;;;;;;13.46;63.28;99474.78;4155230;28;20740;-31
2022/10/01 09:28:30;;;;;;;2.53;2.40;;;;;;;13.64;62.86;99445.84;4154914;28;20240;-31
2022/10/01 09:30:33;;;;;;;3.17;2.90;;;;;;;14.73;61.83;99340.56;4156340;28;20323;-31
2022/10/01 09:32:57;;;;;;;2.90;2.70;;;;;;;13.93;62.66;99420.91;4152484;28;20273;-32
2022/10/01 09:35:09;;;;;;;5.33;3.33;;;;;;;14.41;62.04;99390.97;4154037;28;20256;-32
2022/10/01 09:37:17;;;;;;;3.63;3.33;;;;;;;14.43;62.91;99364.84;4155016;28;20268;-32
2022/10/01 09:39:42;;;;;;;4.13;3.47;;;;;;;15.38;59.33;99326.91;4157144;28;20397;-32
2022/10/01 09:41:45;;;;;;;3.03;2.70;;;;;;;13.70;63.41;99436.25;4155606;28;20386;-32
2022/10/01 09:43:46;;;;;;;3.47;2.77;;;;;;;13.85;63.09;99417.53;4155515;28;20229;-31
2022/10/01 09:45:50;;;;;;;4.70;3.37;;;;;;;14.38;62.82;99369.94;4149325;28;20320;-32
2022/10/01 09:47:57;;;;;;;3.63;3.33;;;;;;;14.89;61.92;99312.69;4154275;28;20235;-32
2022/10/01 09:50:03;;;;;;;3.27;2.97;;;;;;;13.83;62.71;99433.75;4149954;28;20303;-32
2022/10/01 09:52:12;;;;;;;4.47;4.07;;;;;;;14.99;61.65;99317.69;4156281;28;20290;-32